Lake Levels
Share |
Lake Levels
LAKES RIVERS MARINAS NEWS HOUSES EVENTS MAPS
1,648 Lakes:
Lake Store

Lake Levels

LakeLevels.info is a national information and alert service for lake water levels in the United States. With a FREE member account you can receive water level alerts by email when the water level reaches your desired alert level.


We currently offer Lake Level information and alerts for 93 lakes and serve 9,625 members with 23,604 alerts.


Sign-up for a Lake Level Alert




Filter By State:
Lake Name Current
Level
Full Pool +/-
Full Pool
Reading
Date - Time
Alan Henry (TX) 2,210.10 2,224.00 -13.90 3/6/2015  5:30:00 AM
Amistad (TX) 1,087.82 1,117.00 -29.18 3/6/2015  9:15:00 AM
Amon Carter (TX) 912.17 920.00 -7.83 3/6/2015  8:00:00 AM
Aquilla (TX) 535.57 537.50 -1.93 3/6/2015  10:30:00 AM
Arlington (TX) 546.92 550.00 -3.08 3/6/2015  12:00:00 AM
Arrowhead (TX) 906.39 926.00 -19.61 3/6/2015  12:00:00 AM
Athens (TX) 440.13 440.00 0.13 3/6/2015  4:30:00 AM
Austin (TX) 491.94 492.80 -0.86 3/6/2015  10:08:00 AM
Bardwell (TX) 419.58 421.00 -1.42 3/6/2015  10:30:00 AM
Belton (TX) 581.28 594.00 -12.72 3/6/2015  10:00:00 AM
Benbrook (TX) 686.91 694.00 -7.09 3/6/2015  4:00:00 AM
Bob Sandlin (TX) 337.95 337.50 0.45 3/6/2015  9:50:00 AM
Bonham (TX) 563.23 565.00 -1.77 3/6/2015  10:00:00 AM
Brady Creek (TX) 1,726.61 1,743.00 -16.39 3/6/2015  8:45:00 AM
Bridgeport (TX) 811.87 836.00 -24.13 3/6/2015  7:00:00 AM
Brownwood (TX) 1,411.98 1,425.00 -13.02 3/6/2015  9:30:00 AM
Buchanan (TX) 987.25 1,020.50 -33.25 3/6/2015  10:08:00 AM
Caddo (LA TX) 170.55 168.50 2.05 3/6/2015  8:00:00 AM
Canyon (TX) 897.61 909.00 -11.39 3/6/2015  12:15:00 AM
Cedar Creek (TX) 318.82 ??? 3/6/2015  9:45:00 AM
Champion Creek (TX) 2,034.91 2,083.00 -48.09 3/6/2015  8:53:00 AM
Cherokee (TX) 280.50 280.00 0.50 3/6/2015  7:10:00 AM
Choke Canyon (TX) 191.75 220.50 -28.75 3/6/2015  7:30:00 AM
Cisco (TX) 1,502.18 1,520.00 -17.82 3/6/2015  3:30:00 AM
Coleman (TX) 1,698.01 1,718.00 -19.99 3/6/2015  8:30:00 AM
Coleto Creek (TX) 93.77 98.28 -4.51 3/6/2015  9:00:00 AM
Colorado City (TX) 2,047.05 2,070.20 -23.15 3/6/2015  8:53:00 AM
Conroe (TX) 200.88 201.00 -0.12 3/6/2015  9:45:00 AM
Corpus Christi (TX) 84.43 94.00 -9.57 3/6/2015  9:52:00 AM
E. V. Spence (TX) 1,823.50 1,898.00 -74.50 3/6/2015  7:00:00 AM
Eagle Mountain (TX) 638.39 649.00 -10.61 3/6/2015  1:45:00 AM
Falcon (TX) 276.00 301.20 -25.20 3/6/2015  10:08:00 AM
Fork (TX) 397.69 403.00 -5.31 3/6/2015  10:30:00 AM
Georgetown (TX) 781.09 791.00 -9.91 3/6/2015  8:00:00 AM
Graham (TX) 1,060.30 1,075.00 -14.70 3/6/2015  10:00:00 AM
Granbury (TX) 683.80 693.00 -9.20 3/6/2015  5:30:00 AM
Granger (TX) 504.57 504.00 0.57 3/6/2015  3:00:00 AM
Grapevine (TX) 524.59 535.00 -10.41 3/6/2015  6:45:00 AM
Hords Creek (TX) 1,886.00 1,900.00 -14.00 3/6/2015  12:30:00 AM
Houston (TX) 41.97 41.70 0.27 3/6/2015  8:30:00 AM
Hubbard Creek (TX) 1,152.93 1,183.00 -30.07 3/6/2015  9:15:00 AM
Hubert M Moss (TX) 713.07 715.00 -1.93 3/6/2015  10:15:00 AM
Inks (TX) 887.16 886.90 0.26 3/6/2015  12:00:00 AM
Jacksonville (TX) 421.87 422.00 -0.13 3/6/2015  9:50:00 AM
JB Thomas (TX) 2,238.84 2,258.00 -19.16 3/6/2015  12:45:00 AM
Jim Chapman (TX) 432.39 440.00 -7.61 3/6/2015  9:50:00 AM
Joe Pool (TX) 522.09 522.00 0.09 3/6/2015  10:00:00 AM
Lake O' the Pines (TX) 230.69 228.50 2.19 3/6/2015  9:50:00 AM
Lavon (TX) 482.69 492.00 -9.31 3/6/2015  8:00:00 AM
Leon (TX) 1,367.31 ??? 3/6/2015  12:45:00 AM
Lewisville (TX) 516.22 522.00 -5.78 3/6/2015  10:30:00 AM
Limestone (TX) 363.18 363.00 0.18 3/6/2015  9:44:00 AM
Livingston (TX) 131.30 131.00 0.30 3/6/2015  9:15:00 AM
Lyndon B. Johnson (TX) 824.69 825.00 -0.31 3/6/2015  10:08:00 AM
MacKenzie (TX) 3,009.43 3,100.00 -90.57 3/6/2015  10:30:00 AM
Marble Falls (TX) 736.39 737.00 -0.61 3/6/2015  10:08:00 AM
Martin Creek (TX) 306.06 306.00 0.06 3/6/2015  10:30:00 AM
Medina (TX) 974.48 1,062.00 -87.52 3/6/2015  9:00:00 AM
Meredith (TX) 2,858.17 2,941.00 -82.83 3/6/2015  10:30:00 AM
Mexia (TX) 448.84 448.30 0.54 3/6/2015  9:15:00 AM
Mineral Wells (TX) 855.33 863.00 -7.67 3/6/2015  4:30:00 PM
Moss Creek (TX) 2,326.41 2,337.00 -10.59 3/6/2015  10:30:00 AM
Murvaul (TX) 265.86 265.50 0.36 3/6/2015  9:50:00 AM
Nacogdoches (TX) 278.83 279.00 -0.17 3/6/2015  9:50:00 AM
Natural Dam Salt (TX) 2,447.33 2,457.00 -9.67 3/6/2015  8:53:00 AM
Nocona (TX) 813.28 827.00 -13.72 3/6/2015  10:00:00 AM
O.H. Ivie (TX) 1,507.37 1,551.50 -44.13 3/6/2015  10:15:00 AM
Palestine (TX) 345.74 345.00 0.74 3/6/2015  9:50:00 AM
Palo Pinto (TX) 847.12 867.00 -19.88 3/6/2015  10:15:00 AM
Pat Cleburne (TX) 728.05 733.60 -5.55 3/6/2015  10:00:00 AM
Pat Mayse (TX) 451.88 451.00 0.88 3/6/2015  9:50:00 AM
Phantom Hill (TX) 1,618.77 1,635.90 -17.13 3/6/2015  12:00:00 AM
Possum Kingdom (TX) 985.54 1,000.00 -14.46 3/6/2015  9:30:00 AM
Proctor (TX) 1,149.22 1,162.00 -12.78 3/6/2015  6:30:00 AM
Ray Hubbard (TX) 428.25 435.50 -7.25 3/6/2015  10:30:00 AM
Ray Roberts (TX) 625.33 632.50 -7.17 3/6/2015  8:15:00 AM
Red Bluff (TX) 2,825.71 2,827.13 -1.42 3/6/2015  8:53:00 AM
Richland Chambers (TX) 305.12 315.00 -9.88 3/6/2015  9:30:00 AM
Sam Rayburn (TX) 164.51 164.40 0.11 3/6/2015  10:00:00 AM
Somerville (TX) 238.17 238.00 0.17 3/6/2015  8:00:00 AM
Tawakoni (TX) 428.31 437.50 -9.19 3/6/2015  10:30:00 AM
Texana (TX) 40.93 44.00 -3.07 3/6/2015  9:00:00 AM
Texoma (TX) 612.32 617.00 -4.68 3/6/2015  8:00:00 AM
Toledo Bend (TX LA) 170.18 172.00 -1.82 3/6/2015  10:30:00 AM
Travis (TX) 625.82 681.00 -55.18 3/6/2015  9:00:00 AM
Twin Buttes (TX) 1,892.19 1,940.00 -47.81 3/6/2015  12:00:00 AM
Tyler (TX) 376.17 375.50 0.67 3/6/2015  9:50:00 AM
Waco (TX) 459.73 462.00 -2.27 3/6/2015  10:15:00 AM
Waxahachie (TX) 528.84 ??? 3/6/2015  12:00:00 AM
White River (TX) 2,342.73 ??? 3/6/2015  2:15:00 AM
Whitney (TX) 522.83 533.00 -10.17 3/6/2015  7:15:00 AM
Worth (TX) 590.73 594.00 -3.27 3/6/2015  10:00:00 AM
Wright Patman (TX) 226.64 220.60 6.04 3/6/2015  9:50:00 AM


CURRENT DAILY STREAMFLOW CONDITIONS
High
90th percentile
75th - 89th percentile
25th - 74th percentile
10th - 24th percentile
10th percentile
Low
Not ranked

The colored dots on this map depict streamflow conditions as a percentile, which is computed from the period of record for the current day of the year. Only stations with at least 30 years of record are used. The gray circles indicate other stations that were not ranked in percentiles either because they have fewer than 30 years of record or because they report parameters other than streamflow. Some stations, for example, measure stage only.
TX Daily Streamflow Conditions



U.S. Drought Monitor